sensor_id;sensor_type;location;lat;lon;timestamp;P1;durP1;ratioP1;P2;durP2;ratioP2
31754;SDS011;18325;52.018;4.726;2022-09-12T00:01:02;18.70;;;9.70;;
31754;SDS011;18325;52.018;4.726;2022-09-12T00:03:30;14.87;;;9.90;;
31754;SDS011;18325;52.018;4.726;2022-09-12T00:05:56;13.93;;;10.07;;
31754;SDS011;18325;52.018;4.726;2022-09-12T00:08:24;16.50;;;10.07;;
31754;SDS011;18325;52.018;4.726;2022-09-12T00:10:51;12.93;;;8.73;;
31754;SDS011;18325;52.018;4.726;2022-09-12T00:13:17;12.53;;;9.03;;
31754;SDS011;18325;52.018;4.726;2022-09-12T00:15:44;14.43;;;9.53;;
31754;SDS011;18325;52.018;4.726;2022-09-12T00:18:14;12.43;;;8.57;;
31754;SDS011;18325;52.018;4.726;2022-09-12T00:20:42;14.43;;;9.80;;
31754;SDS011;18325;52.018;4.726;2022-09-12T00:23:09;13.70;;;9.00;;
31754;SDS011;18325;52.018;4.726;2022-09-12T00:25:43;14.07;;;9.43;;
31754;SDS011;18325;52.018;4.726;2022-09-12T00:28:10;14.70;;;9.33;;
31754;SDS011;18325;52.018;4.726;2022-09-12T00:30:40;15.53;;;9.60;;
31754;SDS011;18325;52.018;4.726;2022-09-12T00:33:07;14.83;;;9.30;;
31754;SDS011;18325;52.018;4.726;2022-09-12T00:35:39;12.87;;;8.60;;
31754;SDS011;18325;52.018;4.726;2022-09-12T00:38:09;14.37;;;9.50;;
31754;SDS011;18325;52.018;4.726;2022-09-12T00:40:37;13.53;;;8.87;;
31754;SDS011;18325;52.018;4.726;2022-09-12T00:43:05;11.47;;;8.63;;
31754;SDS011;18325;52.018;4.726;2022-09-12T00:45:36;12.47;;;9.30;;
31754;SDS011;18325;52.018;4.726;2022-09-12T00:48:03;15.00;;;9.60;;
31754;SDS011;18325;52.018;4.726;2022-09-12T00:50:29;12.33;;;8.87;;
31754;SDS011;18325;52.018;4.726;2022-09-12T00:52:58;14.47;;;8.67;;
31754;SDS011;18325;52.018;4.726;2022-09-12T00:55:28;13.37;;;8.73;;
31754;SDS011;18325;52.018;4.726;2022-09-12T00:57:58;13.43;;;9.30;;
31754;SDS011;18325;52.018;4.726;2022-09-12T01:00:28;14.20;;;9.77;;
31754;SDS011;18325;52.018;4.726;2022-09-12T01:02:56;12.53;;;9.33;;
31754;SDS011;18325;52.018;4.726;2022-09-12T01:05:24;13.83;;;9.60;;
31754;SDS011;18325;52.018;4.726;2022-09-12T01:07:52;15.57;;;9.33;;
31754;SDS011;18325;52.018;4.726;2022-09-12T01:10:20;18.27;;;10.37;;
31754;SDS011;18325;52.018;4.726;2022-09-12T01:12:46;14.20;;;9.10;;
31754;SDS011;18325;52.018;4.726;2022-09-12T01:15:13;14.30;;;8.90;;
31754;SDS011;18325;52.018;4.726;2022-09-12T01:17:45;12.43;;;8.97;;
31754;SDS011;18325;52.018;4.726;2022-09-12T01:20:30;16.50;;;9.90;;
31754;SDS011;18325;52.018;4.726;2022-09-12T01:26:26;14.90;;;9.87;;
31754;SDS011;18325;52.018;4.726;2022-09-12T01:29:12;15.70;;;9.40;;
31754;SDS011;18325;52.018;4.726;2022-09-12T01:31:47;15.93;;;10.10;;
31754;SDS011;18325;52.018;4.726;2022-09-12T01:34:17;14.73;;;9.40;;
31754;SDS011;18325;52.018;4.726;2022-09-12T01:36:49;15.97;;;10.63;;
31754;SDS011;18325;52.018;4.726;2022-09-12T01:39:24;13.27;;;8.97;;
31754;SDS011;18325;52.018;4.726;2022-09-12T01:41:54;12.97;;;8.90;;
31754;SDS011;18325;52.018;4.726;2022-09-12T01:44:24;17.87;;;10.23;;
31754;SDS011;18325;52.018;4.726;2022-09-12T01:47:02;17.87;;;11.03;;
31754;SDS011;18325;52.018;4.726;2022-09-12T01:49:34;15.53;;;10.43;;
31754;SDS011;18325;52.018;4.726;2022-09-12T01:52:04;15.70;;;10.17;;
31754;SDS011;18325;52.018;4.726;2022-09-12T01:54:37;14.17;;;9.20;;
31754;SDS011;18325;52.018;4.726;2022-09-12T01:57:07;15.10;;;9.90;;
31754;SDS011;18325;52.018;4.726;2022-09-12T01:59:37;16.70;;;10.13;;
31754;SDS011;18325;52.018;4.726;2022-09-12T02:02:08;14.33;;;9.67;;
31754;SDS011;18325;52.018;4.726;2022-09-12T02:04:38;16.67;;;10.57;;
31754;SDS011;18325;52.018;4.726;2022-09-12T02:07:07;15.80;;;9.93;;
31754;SDS011;18325;52.018;4.726;2022-09-12T02:09:38;15.87;;;10.37;;
31754;SDS011;18325;52.018;4.726;2022-09-12T02:12:06;16.33;;;9.77;;
31754;SDS011;18325;52.018;4.726;2022-09-12T02:14:36;14.50;;;9.80;;
31754;SDS011;18325;52.018;4.726;2022-09-12T02:17:05;16.07;;;9.83;;
31754;SDS011;18325;52.018;4.726;2022-09-12T02:19:36;18.53;;;11.53;;
31754;SDS011;18325;52.018;4.726;2022-09-12T02:22:05;16.17;;;10.73;;
31754;SDS011;18325;52.018;4.726;2022-09-12T02:24:36;21.63;;;11.13;;
31754;SDS011;18325;52.018;4.726;2022-09-12T02:27:05;18.27;;;11.60;;
31754;SDS011;18325;52.018;4.726;2022-09-12T02:29:35;15.77;;;10.33;;
31754;SDS011;18325;52.018;4.726;2022-09-12T02:32:03;15.77;;;10.97;;
31754;SDS011;18325;52.018;4.726;2022-09-12T02:34:35;17.10;;;10.40;;
31754;SDS011;18325;52.018;4.726;2022-09-12T02:37:09;16.20;;;10.50;;
31754;SDS011;18325;52.018;4.726;2022-09-12T02:42:39;15.77;;;10.27;;
31754;SDS011;18325;52.018;4.726;2022-09-12T02:45:07;20.20;;;11.13;;
31754;SDS011;18325;52.018;4.726;2022-09-12T02:47:35;16.90;;;10.43;;
31754;SDS011;18325;52.018;4.726;2022-09-12T02:50:05;15.37;;;10.70;;
31754;SDS011;18325;52.018;4.726;2022-09-12T02:52:33;17.43;;;11.03;;
31754;SDS011;18325;52.018;4.726;2022-09-12T02:55:00;16.00;;;9.77;;
31754;SDS011;18325;52.018;4.726;2022-09-12T02:57:27;14.70;;;9.57;;
31754;SDS011;18325;52.018;4.726;2022-09-12T03:00:25;14.97;;;9.97;;
31754;SDS011;18325;52.018;4.726;2022-09-12T03:02:56;17.23;;;10.87;;
31754;SDS011;18325;52.018;4.726;2022-09-12T03:05:44;16.53;;;10.10;;
31754;SDS011;18325;52.018;4.726;2022-09-12T03:08:35;14.73;;;10.47;;
31754;SDS011;18325;52.018;4.726;2022-09-12T03:11:15;16.37;;;10.50;;
31754;SDS011;18325;52.018;4.726;2022-09-12T03:13:50;19.43;;;10.53;;
31754;SDS011;18325;52.018;4.726;2022-09-12T03:16:24;16.60;;;10.10;;
31754;SDS011;18325;52.018;4.726;2022-09-12T03:18:55;19.90;;;11.47;;
31754;SDS011;18325;52.018;4.726;2022-09-12T03:21:27;15.93;;;10.10;;
31754;SDS011;18325;52.018;4.726;2022-09-12T03:27:11;16.37;;;10.60;;
31754;SDS011;18325;52.018;4.726;2022-09-12T03:29:40;17.33;;;11.10;;
31754;SDS011;18325;52.018;4.726;2022-09-12T03:32:08;16.33;;;10.07;;
31754;SDS011;18325;52.018;4.726;2022-09-12T03:34:35;17.90;;;11.17;;
31754;SDS011;18325;52.018;4.726;2022-09-12T03:37:03;18.77;;;11.50;;
31754;SDS011;18325;52.018;4.726;2022-09-12T03:39:30;16.20;;;10.40;;
31754;SDS011;18325;52.018;4.726;2022-09-12T03:41:57;17.03;;;9.63;;
31754;SDS011;18325;52.018;4.726;2022-09-12T03:44:24;16.80;;;11.30;;
31754;SDS011;18325;52.018;4.726;2022-09-12T03:46:51;15.33;;;10.47;;
31754;SDS011;18325;52.018;4.726;2022-09-12T03:49:19;17.73;;;11.43;;
31754;SDS011;18325;52.018;4.726;2022-09-12T03:51:46;16.63;;;11.13;;
31754;SDS011;18325;52.018;4.726;2022-09-12T03:54:14;20.20;;;10.57;;
31754;SDS011;18325;52.018;4.726;2022-09-12T03:56:40;19.67;;;11.30;;
31754;SDS011;18325;52.018;4.726;2022-09-12T03:59:06;18.03;;;11.23;;
31754;SDS011;18325;52.018;4.726;2022-09-12T04:01:33;16.13;;;11.23;;
31754;SDS011;18325;52.018;4.726;2022-09-12T04:04:01;20.17;;;11.47;;
31754;SDS011;18325;52.018;4.726;2022-09-12T04:06:28;18.03;;;11.10;;
31754;SDS011;18325;52.018;4.726;2022-09-12T04:08:55;17.17;;;10.53;;
31754;SDS011;18325;52.018;4.726;2022-09-12T04:11:23;19.37;;;11.60;;
31754;SDS011;18325;52.018;4.726;2022-09-12T04:13:49;18.20;;;10.67;;
31754;SDS011;18325;52.018;4.726;2022-09-12T04:16:16;19.37;;;10.87;;
31754;SDS011;18325;52.018;4.726;2022-09-12T04:18:43;21.13;;;12.30;;
31754;SDS011;18325;52.018;4.726;2022-09-12T04:21:11;20.97;;;11.37;;
31754;SDS011;18325;52.018;4.726;2022-09-12T04:23:38;18.47;;;11.97;;
31754;SDS011;18325;52.018;4.726;2022-09-12T04:26:05;19.47;;;11.50;;
31754;SDS011;18325;52.018;4.726;2022-09-12T04:28:34;19.50;;;12.10;;
31754;SDS011;18325;52.018;4.726;2022-09-12T04:31:13;19.40;;;11.17;;
31754;SDS011;18325;52.018;4.726;2022-09-12T04:33:41;20.97;;;11.87;;
31754;SDS011;18325;52.018;4.726;2022-09-12T04:36:17;23.53;;;12.27;;
31754;SDS011;18325;52.018;4.726;2022-09-12T04:38:47;19.83;;;11.50;;
31754;SDS011;18325;52.018;4.726;2022-09-12T04:41:15;20.43;;;11.53;;
31754;SDS011;18325;52.018;4.726;2022-09-12T04:43:44;23.17;;;12.63;;
31754;SDS011;18325;52.018;4.726;2022-09-12T04:46:12;21.80;;;11.80;;
31754;SDS011;18325;52.018;4.726;2022-09-12T04:48:40;20.00;;;11.20;;
31754;SDS011;18325;52.018;4.726;2022-09-12T04:51:08;20.27;;;11.33;;
31754;SDS011;18325;52.018;4.726;2022-09-12T04:53:35;15.47;;;10.83;;
31754;SDS011;18325;52.018;4.726;2022-09-12T04:56:02;16.43;;;10.53;;
31754;SDS011;18325;52.018;4.726;2022-09-12T04:58:29;19.33;;;11.03;;
31754;SDS011;18325;52.018;4.726;2022-09-12T05:01:03;20.30;;;11.77;;
31754;SDS011;18325;52.018;4.726;2022-09-12T05:03:30;20.27;;;11.53;;
31754;SDS011;18325;52.018;4.726;2022-09-12T05:05:57;17.87;;;10.73;;
31754;SDS011;18325;52.018;4.726;2022-09-12T05:11:13;21.10;;;11.93;;
31754;SDS011;18325;52.018;4.726;2022-09-12T05:13:40;20.83;;;12.70;;
31754;SDS011;18325;52.018;4.726;2022-09-12T05:16:10;24.17;;;12.07;;
31754;SDS011;18325;52.018;4.726;2022-09-12T05:18:39;19.53;;;11.60;;
31754;SDS011;18325;52.018;4.726;2022-09-12T05:21:07;19.57;;;11.87;;
31754;SDS011;18325;52.018;4.726;2022-09-12T05:23:35;18.90;;;10.70;;
31754;SDS011;18325;52.018;4.726;2022-09-12T05:26:02;18.33;;;11.43;;
31754;SDS011;18325;52.018;4.726;2022-09-12T05:28:36;21.33;;;11.73;;
31754;SDS011;18325;52.018;4.726;2022-09-12T05:31:04;19.93;;;12.77;;
31754;SDS011;18325;52.018;4.726;2022-09-12T05:33:33;18.90;;;11.23;;
31754;SDS011;18325;52.018;4.726;2022-09-12T05:36:02;22.53;;;12.17;;
31754;SDS011;18325;52.018;4.726;2022-09-12T05:38:33;24.50;;;12.20;;
31754;SDS011;18325;52.018;4.726;2022-09-12T05:41:03;18.17;;;11.87;;
31754;SDS011;18325;52.018;4.726;2022-09-12T05:43:30;21.27;;;12.70;;
31754;SDS011;18325;52.018;4.726;2022-09-12T05:45:59;20.40;;;11.73;;
31754;SDS011;18325;52.018;4.726;2022-09-12T05:48:26;20.07;;;11.10;;
31754;SDS011;18325;52.018;4.726;2022-09-12T05:50:58;19.77;;;12.23;;
31754;SDS011;18325;52.018;4.726;2022-09-12T05:53:26;20.50;;;12.43;;
31754;SDS011;18325;52.018;4.726;2022-09-12T05:56:00;23.37;;;13.17;;
31754;SDS011;18325;52.018;4.726;2022-09-12T05:58:27;22.90;;;12.40;;
31754;SDS011;18325;52.018;4.726;2022-09-12T06:00:54;22.17;;;12.97;;
31754;SDS011;18325;52.018;4.726;2022-09-12T06:03:21;21.57;;;12.60;;
31754;SDS011;18325;52.018;4.726;2022-09-12T06:05:47;21.50;;;12.97;;
31754;SDS011;18325;52.018;4.726;2022-09-12T06:08:15;20.37;;;11.80;;
31754;SDS011;18325;52.018;4.726;2022-09-12T06:10:42;22.27;;;12.57;;
31754;SDS011;18325;52.018;4.726;2022-09-12T06:13:08;19.60;;;11.60;;
31754;SDS011;18325;52.018;4.726;2022-09-12T06:15:35;21.10;;;12.57;;
31754;SDS011;18325;52.018;4.726;2022-09-12T06:18:01;21.97;;;12.03;;
31754;SDS011;18325;52.018;4.726;2022-09-12T06:20:28;19.03;;;11.87;;
31754;SDS011;18325;52.018;4.726;2022-09-12T06:22:56;21.70;;;11.43;;
31754;SDS011;18325;52.018;4.726;2022-09-12T06:25:23;23.03;;;13.23;;
31754;SDS011;18325;52.018;4.726;2022-09-12T06:27:50;23.03;;;13.30;;
31754;SDS011;18325;52.018;4.726;2022-09-12T06:30:17;23.23;;;12.77;;
31754;SDS011;18325;52.018;4.726;2022-09-12T06:32:43;23.53;;;13.97;;
31754;SDS011;18325;52.018;4.726;2022-09-12T06:35:10;23.57;;;13.43;;
31754;SDS011;18325;52.018;4.726;2022-09-12T06:37:37;25.97;;;12.80;;
31754;SDS011;18325;52.018;4.726;2022-09-12T06:40:05;26.30;;;13.83;;
31754;SDS011;18325;52.018;4.726;2022-09-12T06:42:33;25.80;;;13.00;;
31754;SDS011;18325;52.018;4.726;2022-09-12T06:45:00;21.67;;;12.83;;
31754;SDS011;18325;52.018;4.726;2022-09-12T06:47:26;25.27;;;12.90;;
31754;SDS011;18325;52.018;4.726;2022-09-12T06:49:53;24.97;;;13.17;;
31754;SDS011;18325;52.018;4.726;2022-09-12T06:52:19;23.40;;;13.13;;
31754;SDS011;18325;52.018;4.726;2022-09-12T06:54:46;24.60;;;12.93;;
31754;SDS011;18325;52.018;4.726;2022-09-12T06:57:12;25.27;;;13.60;;
31754;SDS011;18325;52.018;4.726;2022-09-12T06:59:40;25.10;;;13.17;;
31754;SDS011;18325;52.018;4.726;2022-09-12T07:02:07;26.80;;;14.33;;
31754;SDS011;18325;52.018;4.726;2022-09-12T07:04:34;28.70;;;14.27;;
31754;SDS011;18325;52.018;4.726;2022-09-12T07:07:03;22.63;;;12.17;;
31754;SDS011;18325;52.018;4.726;2022-09-12T07:09:30;22.43;;;12.83;;
31754;SDS011;18325;52.018;4.726;2022-09-12T07:11:56;24.70;;;13.63;;
31754;SDS011;18325;52.018;4.726;2022-09-12T07:14:24;24.37;;;13.30;;
31754;SDS011;18325;52.018;4.726;2022-09-12T07:16:52;21.00;;;14.07;;
31754;SDS011;18325;52.018;4.726;2022-09-12T07:19:19;24.20;;;14.00;;
31754;SDS011;18325;52.018;4.726;2022-09-12T07:21:48;25.37;;;14.50;;
31754;SDS011;18325;52.018;4.726;2022-09-12T07:24:14;25.73;;;13.97;;
31754;SDS011;18325;52.018;4.726;2022-09-12T07:26:41;24.87;;;14.57;;
31754;SDS011;18325;52.018;4.726;2022-09-12T07:29:11;22.30;;;13.77;;
31754;SDS011;18325;52.018;4.726;2022-09-12T07:31:39;23.40;;;13.63;;
31754;SDS011;18325;52.018;4.726;2022-09-12T07:34:07;26.40;;;15.10;;
31754;SDS011;18325;52.018;4.726;2022-09-12T07:36:34;30.87;;;15.77;;
31754;SDS011;18325;52.018;4.726;2022-09-12T07:39:01;23.30;;;13.17;;
31754;SDS011;18325;52.018;4.726;2022-09-12T07:41:28;27.20;;;15.37;;
31754;SDS011;18325;52.018;4.726;2022-09-12T07:43:58;24.47;;;14.20;;
31754;SDS011;18325;52.018;4.726;2022-09-12T07:46:25;24.20;;;15.40;;
31754;SDS011;18325;52.018;4.726;2022-09-12T07:48:54;27.30;;;14.87;;
31754;SDS011;18325;52.018;4.726;2022-09-12T07:51:23;25.70;;;14.93;;
31754;SDS011;18325;52.018;4.726;2022-09-12T07:53:59;24.77;;;14.43;;
31754;SDS011;18325;52.018;4.726;2022-09-12T07:56:26;23.80;;;14.37;;
31754;SDS011;18325;52.018;4.726;2022-09-12T07:58:53;24.40;;;15.07;;
31754;SDS011;18325;52.018;4.726;2022-09-12T08:01:20;25.23;;;15.43;;
31754;SDS011;18325;52.018;4.726;2022-09-12T08:03:49;22.67;;;14.17;;
31754;SDS011;18325;52.018;4.726;2022-09-12T08:06:19;25.77;;;15.80;;
31754;SDS011;18325;52.018;4.726;2022-09-12T08:08:49;26.83;;;15.93;;
31754;SDS011;18325;52.018;4.726;2022-09-12T08:11:17;27.57;;;14.87;;
31754;SDS011;18325;52.018;4.726;2022-09-12T08:13:45;25.83;;;14.57;;
31754;SDS011;18325;52.018;4.726;2022-09-12T08:16:13;27.97;;;15.60;;
31754;SDS011;18325;52.018;4.726;2022-09-12T08:18:40;26.57;;;15.70;;
31754;SDS011;18325;52.018;4.726;2022-09-12T08:21:18;25.23;;;14.83;;
31754;SDS011;18325;52.018;4.726;2022-09-12T08:23:46;24.70;;;14.87;;
31754;SDS011;18325;52.018;4.726;2022-09-12T08:26:14;28.20;;;15.70;;
31754;SDS011;18325;52.018;4.726;2022-09-12T08:28:42;28.47;;;16.30;;
31754;SDS011;18325;52.018;4.726;2022-09-12T08:31:10;25.27;;;16.20;;
31754;SDS011;18325;52.018;4.726;2022-09-12T08:33:37;25.10;;;15.00;;
31754;SDS011;18325;52.018;4.726;2022-09-12T08:36:04;28.30;;;14.77;;
31754;SDS011;18325;52.018;4.726;2022-09-12T08:38:32;31.43;;;16.60;;
31754;SDS011;18325;52.018;4.726;2022-09-12T08:41:00;24.50;;;15.17;;
31754;SDS011;18325;52.018;4.726;2022-09-12T08:43:34;26.67;;;14.97;;
31754;SDS011;18325;52.018;4.726;2022-09-12T08:46:12;24.17;;;14.77;;
31754;SDS011;18325;52.018;4.726;2022-09-12T08:48:43;24.67;;;14.93;;
31754;SDS011;18325;52.018;4.726;2022-09-12T08:51:11;22.80;;;14.63;;
31754;SDS011;18325;52.018;4.726;2022-09-12T08:53:40;21.43;;;12.50;;
31754;SDS011;18325;52.018;4.726;2022-09-12T08:56:07;23.77;;;13.87;;
31754;SDS011;18325;52.018;4.726;2022-09-12T08:58:38;21.83;;;13.00;;
31754;SDS011;18325;52.018;4.726;2022-09-12T09:01:06;24.97;;;13.83;;
31754;SDS011;18325;52.018;4.726;2022-09-12T09:06:24;19.10;;;11.07;;
31754;SDS011;18325;52.018;4.726;2022-09-12T09:08:59;16.75;;;9.93;;
31754;SDS011;18325;52.018;4.726;2022-09-12T09:11:38;18.40;;;10.90;;
31754;SDS011;18325;52.018;4.726;2022-09-12T09:17:14;14.73;;;9.68;;
31754;SDS011;18325;52.018;4.726;2022-09-12T09:19:47;15.88;;;8.95;;
31754;SDS011;18325;52.018;4.726;2022-09-12T09:22:15;12.57;;;7.72;;
31754;SDS011;18325;52.018;4.726;2022-09-12T09:24:47;13.02;;;6.82;;
31754;SDS011;18325;52.018;4.726;2022-09-12T09:27:19;9.73;;;6.00;;
31754;SDS011;18325;52.018;4.726;2022-09-12T09:29:51;11.88;;;6.80;;
31754;SDS011;18325;52.018;4.726;2022-09-12T09:32:22;11.18;;;6.32;;
31754;SDS011;18325;52.018;4.726;2022-09-12T09:34:51;10.05;;;6.43;;
31754;SDS011;18325;52.018;4.726;2022-09-12T09:37:18;9.70;;;5.72;;
31754;SDS011;18325;52.018;4.726;2022-09-12T09:39:48;8.48;;;5.78;;
31754;SDS011;18325;52.018;4.726;2022-09-12T09:42:27;8.20;;;5.35;;
31754;SDS011;18325;52.018;4.726;2022-09-12T09:44:59;7.85;;;5.82;;
31754;SDS011;18325;52.018;4.726;2022-09-12T09:47:28;11.13;;;5.28;;
31754;SDS011;18325;52.018;4.726;2022-09-12T09:49:55;7.55;;;5.47;;
31754;SDS011;18325;52.018;4.726;2022-09-12T09:52:23;11.25;;;6.13;;
31754;SDS011;18325;52.018;4.726;2022-09-12T09:54:53;10.40;;;5.90;;
31754;SDS011;18325;52.018;4.726;2022-09-12T09:57:38;8.10;;;5.55;;
31754;SDS011;18325;52.018;4.726;2022-09-12T10:03:05;11.32;;;6.53;;
31754;SDS011;18325;52.018;4.726;2022-09-12T10:05:47;9.05;;;6.57;;
31754;SDS011;18325;52.018;4.726;2022-09-12T10:08:21;10.27;;;6.60;;
31754;SDS011;18325;52.018;4.726;2022-09-12T10:10:54;9.70;;;6.68;;
31754;SDS011;18325;52.018;4.726;2022-09-12T10:13:23;9.10;;;5.72;;
31754;SDS011;18325;52.018;4.726;2022-09-12T10:16:02;8.25;;;5.60;;
31754;SDS011;18325;52.018;4.726;2022-09-12T10:18:34;7.30;;;5.38;;
31754;SDS011;18325;52.018;4.726;2022-09-12T10:21:05;7.95;;;5.90;;
31754;SDS011;18325;52.018;4.726;2022-09-12T10:23:40;10.20;;;7.25;;
31754;SDS011;18325;52.018;4.726;2022-09-12T10:26:08;13.35;;;6.85;;
31754;SDS011;18325;52.018;4.726;2022-09-12T10:28:52;14.20;;;7.55;;
31754;SDS011;18325;52.018;4.726;2022-09-12T10:31:26;13.68;;;7.22;;
31754;SDS011;18325;52.018;4.726;2022-09-12T10:33:54;6.85;;;4.88;;
31754;SDS011;18325;52.018;4.726;2022-09-12T10:36:22;6.00;;;4.85;;
31754;SDS011;18325;52.018;4.726;2022-09-12T10:38:49;8.35;;;4.93;;
31754;SDS011;18325;52.018;4.726;2022-09-12T10:41:17;7.50;;;4.80;;
31754;SDS011;18325;52.018;4.726;2022-09-12T10:43:44;5.90;;;4.18;;
31754;SDS011;18325;52.018;4.726;2022-09-12T10:46:21;6.40;;;4.40;;
31754;SDS011;18325;52.018;4.726;2022-09-12T10:48:51;6.40;;;4.03;;
31754;SDS011;18325;52.018;4.726;2022-09-12T10:51:37;6.50;;;4.10;;
31754;SDS011;18325;52.018;4.726;2022-09-12T10:54:04;4.88;;;4.15;;
31754;SDS011;18325;52.018;4.726;2022-09-12T10:56:34;5.28;;;3.47;;
31754;SDS011;18325;52.018;4.726;2022-09-12T10:59:06;7.30;;;4.20;;
31754;SDS011;18325;52.018;4.726;2022-09-12T11:01:40;6.55;;;3.72;;
31754;SDS011;18325;52.018;4.726;2022-09-12T11:04:19;8.40;;;4.78;;
31754;SDS011;18325;52.018;4.726;2022-09-12T11:07:06;7.32;;;4.30;;
31754;SDS011;18325;52.018;4.726;2022-09-12T11:09:56;6.88;;;5.15;;
31754;SDS011;18325;52.018;4.726;2022-09-12T11:12:30;6.88;;;4.57;;
31754;SDS011;18325;52.018;4.726;2022-09-12T11:15:35;6.70;;;4.72;;
31754;SDS011;18325;52.018;4.726;2022-09-12T11:17:59;6.07;;;4.00;;
31754;SDS011;18325;52.018;4.726;2022-09-12T11:20:42;7.65;;;4.55;;
31754;SDS011;18325;52.018;4.726;2022-09-12T11:23:31;6.20;;;4.43;;
31754;SDS011;18325;52.018;4.726;2022-09-12T11:26:06;7.80;;;4.18;;
31754;SDS011;18325;52.018;4.726;2022-09-12T11:28:55;6.00;;;4.53;;
31754;SDS011;18325;52.018;4.726;2022-09-12T11:31:41;8.95;;;4.00;;
31754;SDS011;18325;52.018;4.726;2022-09-12T11:34:23;6.45;;;4.60;;
31754;SDS011;18325;52.018;4.726;2022-09-12T11:37:02;5.68;;;4.05;;
31754;SDS011;18325;52.018;4.726;2022-09-12T11:39:38;7.43;;;4.75;;
31754;SDS011;18325;52.018;4.726;2022-09-12T11:42:06;7.55;;;4.85;;
31754;SDS011;18325;52.018;4.726;2022-09-12T11:44:46;6.13;;;4.32;;
31754;SDS011;18325;52.018;4.726;2022-09-12T11:47:22;9.45;;;4.90;;
31754;SDS011;18325;52.018;4.726;2022-09-12T11:49:50;5.03;;;3.65;;
31754;SDS011;18325;52.018;4.726;2022-09-12T11:52:21;7.07;;;4.63;;
31754;SDS011;18325;52.018;4.726;2022-09-12T11:54:49;7.65;;;4.07;;
31754;SDS011;18325;52.018;4.726;2022-09-12T11:57:28;7.57;;;3.88;;
31754;SDS011;18325;52.018;4.726;2022-09-12T11:59:57;5.07;;;3.63;;
31754;SDS011;18325;52.018;4.726;2022-09-12T12:02:26;6.63;;;3.78;;
31754;SDS011;18325;52.018;4.726;2022-09-12T12:05:05;6.15;;;4.10;;
31754;SDS011;18325;52.018;4.726;2022-09-12T12:07:45;4.28;;;3.55;;
31754;SDS011;18325;52.018;4.726;2022-09-12T12:10:21;5.43;;;3.60;;
31754;SDS011;18325;52.018;4.726;2022-09-12T12:12:50;4.13;;;3.13;;
31754;SDS011;18325;52.018;4.726;2022-09-12T12:15:18;7.32;;;4.13;;
31754;SDS011;18325;52.018;4.726;2022-09-12T12:17:45;3.85;;;3.40;;
31754;SDS011;18325;52.018;4.726;2022-09-12T12:20:36;4.88;;;3.20;;
31754;SDS011;18325;52.018;4.726;2022-09-12T12:23:04;4.03;;;3.38;;
31754;SDS011;18325;52.018;4.726;2022-09-12T12:25:38;7.72;;;3.38;;
31754;SDS011;18325;52.018;4.726;2022-09-12T12:28:05;8.25;;;3.30;;
31754;SDS011;18325;52.018;4.726;2022-09-12T12:36:36;4.80;;;2.90;;
31754;SDS011;18325;52.018;4.726;2022-09-12T12:45:47;3.40;;;2.65;;
31754;SDS011;18325;52.018;4.726;2022-09-12T12:51:45;4.88;;;3.35;;
31754;SDS011;18325;52.018;4.726;2022-09-12T12:57:31;5.35;;;3.38;;
31754;SDS011;18325;52.018;4.726;2022-09-12T13:00:04;4.43;;;3.08;;
31754;SDS011;18325;52.018;4.726;2022-09-12T13:02:35;4.60;;;3.03;;
31754;SDS011;18325;52.018;4.726;2022-09-12T13:05:04;2.92;;;2.53;;
31754;SDS011;18325;52.018;4.726;2022-09-12T13:07:33;3.22;;;2.92;;
31754;SDS011;18325;52.018;4.726;2022-09-12T13:10:02;5.78;;;3.33;;
31754;SDS011;18325;52.018;4.726;2022-09-12T13:12:44;3.13;;;2.55;;
31754;SDS011;18325;52.018;4.726;2022-09-12T13:15:45;2.55;;;2.25;;
31754;SDS011;18325;52.018;4.726;2022-09-12T13:18:24;3.60;;;2.33;;
31754;SDS011;18325;52.018;4.726;2022-09-12T13:21:02;4.50;;;2.45;;
31754;SDS011;18325;52.018;4.726;2022-09-12T13:23:34;3.15;;;2.35;;
31754;SDS011;18325;52.018;4.726;2022-09-12T13:26:01;3.45;;;2.75;;
31754;SDS011;18325;52.018;4.726;2022-09-12T13:28:39;3.10;;;2.65;;
31754;SDS011;18325;52.018;4.726;2022-09-12T13:31:08;4.28;;;2.75;;
31754;SDS011;18325;52.018;4.726;2022-09-12T13:33:58;3.83;;;2.63;;
31754;SDS011;18325;52.018;4.726;2022-09-12T13:39:27;3.90;;;2.78;;
31754;SDS011;18325;52.018;4.726;2022-09-12T13:48:12;2.75;;;2.40;;
31754;SDS011;18325;52.018;4.726;2022-09-12T13:50:44;4.65;;;2.75;;
31754;SDS011;18325;52.018;4.726;2022-09-12T13:53:15;3.13;;;2.45;;
31754;SDS011;18325;52.018;4.726;2022-09-12T13:55:44;3.28;;;2.55;;
31754;SDS011;18325;52.018;4.726;2022-09-12T13:58:18;3.95;;;2.38;;
31754;SDS011;18325;52.018;4.726;2022-09-12T14:03:38;3.45;;;2.40;;
31754;SDS011;18325;52.018;4.726;2022-09-12T14:06:27;3.95;;;2.60;;
31754;SDS011;18325;52.018;4.726;2022-09-12T14:09:01;3.10;;;2.40;;
31754;SDS011;18325;52.018;4.726;2022-09-12T14:11:31;4.72;;;2.40;;
31754;SDS011;18325;52.018;4.726;2022-09-12T14:17:13;2.35;;;1.50;;
31754;SDS011;18325;52.018;4.726;2022-09-12T14:19:41;2.92;;;2.00;;
31754;SDS011;18325;52.018;4.726;2022-09-12T14:22:09;4.50;;;1.58;;
31754;SDS011;18325;52.018;4.726;2022-09-12T14:24:42;3.58;;;1.85;;
31754;SDS011;18325;52.018;4.726;2022-09-12T14:27:28;2.00;;;1.75;;
31754;SDS011;18325;52.018;4.726;2022-09-12T14:30:56;2.60;;;2.00;;
31754;SDS011;18325;52.018;4.726;2022-09-12T14:33:46;2.25;;;1.92;;
31754;SDS011;18325;52.018;4.726;2022-09-12T14:43:39;1.83;;;1.70;;
31754;SDS011;18325;52.018;4.726;2022-09-12T14:46:30;2.10;;;1.90;;
31754;SDS011;18325;52.018;4.726;2022-09-12T14:48:59;3.60;;;2.30;;
31754;SDS011;18325;52.018;4.726;2022-09-12T14:51:30;2.30;;;1.92;;
31754;SDS011;18325;52.018;4.726;2022-09-12T14:53:57;2.58;;;2.00;;
31754;SDS011;18325;52.018;4.726;2022-09-12T14:56:37;2.10;;;1.90;;
31754;SDS011;18325;52.018;4.726;2022-09-12T15:04:51;2.33;;;2.10;;
31754;SDS011;18325;52.018;4.726;2022-09-12T15:10:00;2.15;;;1.95;;
31754;SDS011;18325;52.018;4.726;2022-09-12T15:13:47;2.70;;;2.20;;
31754;SDS011;18325;52.018;4.726;2022-09-12T15:16:14;2.83;;;2.13;;
31754;SDS011;18325;52.018;4.726;2022-09-12T15:18:40;2.28;;;2.08;;
31754;SDS011;18325;52.018;4.726;2022-09-12T15:21:13;2.33;;;1.88;;
31754;SDS011;18325;52.018;4.726;2022-09-12T15:23:43;2.28;;;2.08;;
31754;SDS011;18325;52.018;4.726;2022-09-12T15:26:11;3.00;;;2.03;;
31754;SDS011;18325;52.018;4.726;2022-09-12T15:28:39;4.90;;;2.05;;
31754;SDS011;18325;52.018;4.726;2022-09-12T15:31:10;3.45;;;1.90;;
31754;SDS011;18325;52.018;4.726;2022-09-12T15:33:38;2.38;;;2.17;;
31754;SDS011;18325;52.018;4.726;2022-09-12T15:36:09;2.92;;;1.90;;
31754;SDS011;18325;52.018;4.726;2022-09-12T15:42:09;2.90;;;2.20;;
31754;SDS011;18325;52.018;4.726;2022-09-12T15:44:45;4.45;;;2.10;;
31754;SDS011;18325;52.018;4.726;2022-09-12T15:47:13;3.50;;;1.80;;
31754;SDS011;18325;52.018;4.726;2022-09-12T15:49:46;2.25;;;1.60;;
31754;SDS011;18325;52.018;4.726;2022-09-12T15:52:14;2.72;;;2.17;;
31754;SDS011;18325;52.018;4.726;2022-09-12T15:54:41;4.90;;;1.92;;
31754;SDS011;18325;52.018;4.726;2022-09-12T15:57:10;3.53;;;2.63;;
31754;SDS011;18325;52.018;4.726;2022-09-12T15:59:36;2.30;;;2.03;;
31754;SDS011;18325;52.018;4.726;2022-09-12T16:02:02;9.52;;;5.22;;
31754;SDS011;18325;52.018;4.726;2022-09-12T16:04:31;3.40;;;2.92;;
31754;SDS011;18325;52.018;4.726;2022-09-12T16:06:57;3.17;;;2.45;;
31754;SDS011;18325;52.018;4.726;2022-09-12T16:09:24;2.78;;;2.58;;
31754;SDS011;18325;52.018;4.726;2022-09-12T16:11:50;6.00;;;2.40;;